createdAt,value
2022-11-24T00:02:49.077Z,9.60
2022-11-24T00:07:54.349Z,8.32
2022-11-24T00:12:59.881Z,10.52
2022-11-24T00:18:04.280Z,14.98
2022-11-24T00:23:10.947Z,8.63
2022-11-24T00:28:16.914Z,8.23
2022-11-24T00:33:21.388Z,9.20
2022-11-24T00:38:26.528Z,5.82
2022-11-24T00:43:32.003Z,8.40
2022-11-24T00:48:37.347Z,7.22
2022-11-24T00:53:42.760Z,6.13
2022-11-24T00:58:48.548Z,5.05
2022-11-24T01:03:54.644Z,3.85
2022-11-24T01:08:59.194Z,3.55
2022-11-24T01:14:04.858Z,4.18
2022-11-24T01:19:09.926Z,3.95
2022-11-24T01:24:14.719Z,5.78
2022-11-24T01:29:20.237Z,8.63
2022-11-24T01:34:25.309Z,10.10
2022-11-24T01:39:31.991Z,7.30
2022-11-24T01:44:37.490Z,5.82
2022-11-24T01:49:46.131Z,4.53
2022-11-24T01:54:54.739Z,3.47
2022-11-24T02:00:07.558Z,3.77
2022-11-24T02:05:25.516Z,3.63
2022-11-24T02:10:31.019Z,5.13
2022-11-24T02:15:38.188Z,3.58
2022-11-24T02:20:42.350Z,3.03
2022-11-24T02:25:57.706Z,3.53
2022-11-24T02:31:04.210Z,4.28
2022-11-24T02:36:09.182Z,3.15
2022-11-24T02:41:20.192Z,3.75
2022-11-24T02:46:25.945Z,4.55
2022-11-24T02:51:30.244Z,7.95
2022-11-24T02:56:34.541Z,5.68
2022-11-24T03:01:40.079Z,3.97
2022-11-24T03:06:44.505Z,5.22
2022-11-24T03:11:50.128Z,5.63
2022-11-24T03:16:55.720Z,4.65
2022-11-24T03:22:01.329Z,7.72
2022-11-24T03:27:05.660Z,6.55
2022-11-24T03:32:12.644Z,5.60
2022-11-24T03:37:18.092Z,3.22
2022-11-24T03:42:22.279Z,4.00
2022-11-24T03:47:27.935Z,3.60
2022-11-24T03:52:32.687Z,7.95
2022-11-24T03:57:36.725Z,8.15
2022-11-24T04:02:42.823Z,9.65
2022-11-24T04:07:47.307Z,9.48
2022-11-24T04:12:51.661Z,10.38
2022-11-24T04:17:58.045Z,9.18
2022-11-24T04:23:02.613Z,14.52
2022-11-24T04:28:06.947Z,13.85
2022-11-24T04:33:14.680Z,6.82
2022-11-24T04:39:22.907Z,4.15
2022-11-24T04:43:42.674Z,6.32
2022-11-24T04:48:48.280Z,6.10
2022-11-24T04:53:52.982Z,5.70
2022-11-24T04:58:57.111Z,10.13
2022-11-24T05:04:02.500Z,9.25
2022-11-24T05:09:07.676Z,5.93
2022-11-24T05:14:12.046Z,12.65
2022-11-24T05:19:18.590Z,18.58
2022-11-24T05:24:22.755Z,27.40
2022-11-24T05:29:27.522Z,45.72
2022-11-24T05:34:33.890Z,30.20
2022-11-24T05:39:38.699Z,30.48
2022-11-24T05:44:42.912Z,24.98
2022-11-24T05:49:48.776Z,34.22
2022-11-24T05:54:52.976Z,35.90
2022-11-24T05:59:58.845Z,28.25
2022-11-24T06:05:05.130Z,23.75
2022-11-24T06:10:09.811Z,19.55
2022-11-24T06:15:14.153Z,19.67
2022-11-24T06:20:19.926Z,34.63
2022-11-24T06:25:23.957Z,39.15
2022-11-24T06:30:28.030Z,38.15
2022-11-24T06:35:33.407Z,26.90
2022-11-24T06:40:38.668Z,25.38
2022-11-24T06:45:42.695Z,25.58
2022-11-24T06:50:50.337Z,25.13
2022-11-24T06:55:55.059Z,18.63
2022-11-24T07:01:00.211Z,16.33
2022-11-24T07:06:06.369Z,14.77
2022-11-24T07:11:12.934Z,15.52
2022-11-24T07:16:18.708Z,18.52
2022-11-24T07:21:29.518Z,23.27
2022-11-24T07:26:37.389Z,21.20
2022-11-24T07:31:42.737Z,27.55
2022-11-24T07:36:48.463Z,29.33
2022-11-24T07:41:52.892Z,28.95
2022-11-24T07:46:57.024Z,30.58
2022-11-24T07:52:02.397Z,30.33
2022-11-24T07:57:07.745Z,17.88
2022-11-24T08:02:15.420Z,15.25
2022-11-24T08:07:21.131Z,15.23
2022-11-24T08:12:28.184Z,15.23
2022-11-24T08:17:32.231Z,12.25
2022-11-24T08:22:39.473Z,6.47
2022-11-24T08:27:44.095Z,5.65
2022-11-24T08:32:48.403Z,3.40
2022-11-24T08:37:53.889Z,2.97
2022-11-24T08:42:59.411Z,2.53
2022-11-24T08:48:03.700Z,3.55
2022-11-24T08:53:09.242Z,2.92
2022-11-24T08:58:13.448Z,2.33
2022-11-24T09:03:18.141Z,2.80
2022-11-24T09:08:24.777Z,3.38
2022-11-24T09:13:29.033Z,2.70
2022-11-24T09:18:34.445Z,2.90
2022-11-24T09:23:41.237Z,3.47
2022-11-24T09:28:47.263Z,3.67
2022-11-24T09:33:51.828Z,4.32
2022-11-24T09:38:59.274Z,4.82
2022-11-24T09:44:11.081Z,4.72
2022-11-24T09:49:24.743Z,3.42
2022-11-24T09:54:32.845Z,5.10
2022-11-24T09:59:37.520Z,5.70
2022-11-24T10:05:09.675Z,4.73
2022-11-24T10:10:24.196Z,5.63
2022-11-24T10:15:39.385Z,5.03
2022-11-24T10:20:53.795Z,7.03
2022-11-24T10:26:01.121Z,5.72
2022-11-24T10:31:18.996Z,5.43
2022-11-24T10:36:31.778Z,7.80
2022-11-24T10:41:46.435Z,7.25
2022-11-24T10:46:52.117Z,6.72
2022-11-24T10:52:07.186Z,8.40
2022-11-24T10:57:29.009Z,10.35
2022-11-24T11:02:38.518Z,11.38
2022-11-24T11:07:42.525Z,11.20
2022-11-24T11:12:48.061Z,10.20
2022-11-24T11:17:57.388Z,12.40
2022-11-24T11:23:04.802Z,13.43
2022-11-24T11:28:24.172Z,11.30
2022-11-24T11:38:54.401Z,7.38
2022-11-24T11:44:08.955Z,6.22
2022-11-24T11:49:13.951Z,4.97
2022-11-24T11:54:30.842Z,4.80
2022-11-24T11:59:59.141Z,4.80
2022-11-24T12:05:12.944Z,5.82
2022-11-24T12:10:31.674Z,3.92
2022-11-24T12:15:42.190Z,4.63
2022-11-24T12:20:58.785Z,3.55
2022-11-24T12:26:10.576Z,3.05
2022-11-24T12:31:22.536Z,3.35
2022-11-24T12:36:42.581Z,3.50
2022-11-24T12:42:00.881Z,9.57
2022-11-24T12:47:17.193Z,8.00
2022-11-24T12:52:27.440Z,4.18
2022-11-24T12:57:36.558Z,7.68
2022-11-24T13:03:01.861Z,8.23
2022-11-24T13:08:06.977Z,2.38
2022-11-24T13:13:12.642Z,5.18
2022-11-24T13:18:47.481Z,8.18
2022-11-24T13:23:58.536Z,5.05
2022-11-24T13:29:13.457Z,4.65
2022-11-24T13:35:03.804Z,4.10
2022-11-24T13:40:45.835Z,2.87
2022-11-24T13:45:55.370Z,3.00
2022-11-24T13:51:24.884Z,4.75
2022-11-24T13:56:32.360Z,3.13
2022-11-24T14:01:42.508Z,5.35
2022-11-24T14:06:54.921Z,4.60
2022-11-24T14:12:06.577Z,3.60
2022-11-24T14:17:22.960Z,3.85
2022-11-24T14:22:35.946Z,3.53
2022-11-24T14:27:40.686Z,4.10
2022-11-24T14:32:55.252Z,5.82
2022-11-24T14:38:04.397Z,6.63
2022-11-24T14:43:21.897Z,4.65
2022-11-24T14:48:28.994Z,3.38
2022-11-24T14:53:37.654Z,3.75
2022-11-24T14:58:42.662Z,3.77
2022-11-24T15:03:47.127Z,4.18
2022-11-24T15:08:53.696Z,3.40
2022-11-24T15:13:59.116Z,3.50
2022-11-24T15:19:04.002Z,3.05
2022-11-24T15:24:20.878Z,3.90
2022-11-24T15:29:25.017Z,4.43
2022-11-24T15:34:28.984Z,3.85
2022-11-24T15:39:34.847Z,2.83
2022-11-24T15:44:41.287Z,3.78
2022-11-24T15:49:46.590Z,2.53
2022-11-24T15:54:58.201Z,3.63
2022-11-24T16:00:02.802Z,4.53
2022-11-24T16:05:17.615Z,3.53
2022-11-24T16:10:28.453Z,3.78
2022-11-24T16:15:32.708Z,4.72
2022-11-24T16:20:37.778Z,7.82
2022-11-24T16:25:43.810Z,4.97
2022-11-24T16:30:50.728Z,5.43
2022-11-24T16:35:56.158Z,7.82
2022-11-24T16:41:03.541Z,3.85
2022-11-24T16:46:20.531Z,3.15
2022-11-24T16:51:29.946Z,3.97
2022-11-24T16:56:38.842Z,3.00
2022-11-24T17:01:46.525Z,4.35
2022-11-24T17:06:53.100Z,3.42
2022-11-24T17:11:58.527Z,3.50
2022-11-24T17:17:05.264Z,3.92
2022-11-24T17:22:09.458Z,4.63
2022-11-24T17:27:15.037Z,4.20
2022-11-24T17:32:19.370Z,5.07
2022-11-24T17:37:24.490Z,4.50
2022-11-24T17:42:30.285Z,5.43
2022-11-24T17:47:34.984Z,4.95
2022-11-24T17:52:38.977Z,5.57
2022-11-24T17:57:44.568Z,4.88
2022-11-24T18:02:48.864Z,4.22
2022-11-24T18:07:54.165Z,3.75
2022-11-24T18:13:00.118Z,4.55
2022-11-24T18:18:04.843Z,3.92
2022-11-24T18:23:09.414Z,5.03
2022-11-24T18:28:15.952Z,4.75
2022-11-24T18:33:21.880Z,4.85
2022-11-24T18:38:26.415Z,4.95
2022-11-24T18:43:32.594Z,4.55
2022-11-24T18:48:37.130Z,5.38
2022-11-24T18:53:42.530Z,4.45
2022-11-24T18:58:47.951Z,4.18
2022-11-24T19:03:54.356Z,4.65
2022-11-24T19:09:03.004Z,5.07
2022-11-24T19:14:13.115Z,4.13
2022-11-24T19:19:17.622Z,3.60
2022-11-24T19:24:25.737Z,4.57
2022-11-24T19:29:31.203Z,4.30
2022-11-24T19:34:35.421Z,3.70
2022-11-24T19:39:39.556Z,3.72
2022-11-24T19:44:45.066Z,3.85
2022-11-24T19:49:49.215Z,3.72
2022-11-24T19:54:53.226Z,3.33
2022-11-24T20:00:01.423Z,4.03
2022-11-24T20:05:10.607Z,3.40
2022-11-24T20:10:15.626Z,4.15
2022-11-24T20:15:21.216Z,3.80
2022-11-24T20:20:25.748Z,4.10
2022-11-24T20:25:29.780Z,3.38
2022-11-24T20:30:35.851Z,4.30
2022-11-24T20:35:41.142Z,4.35
2022-11-24T20:40:45.118Z,4.10
2022-11-24T20:45:50.627Z,3.40
2022-11-24T20:50:54.651Z,4.13
2022-11-24T20:56:05.889Z,3.70
2022-11-24T21:01:15.222Z,3.50
2022-11-24T21:06:19.267Z,3.13
2022-11-24T21:11:25.498Z,3.10
2022-11-24T21:16:32.938Z,3.30
2022-11-24T21:21:38.659Z,3.40
2022-11-24T21:26:44.367Z,3.45
2022-11-24T21:31:50.602Z,3.05
2022-11-24T21:36:54.654Z,2.72
2022-11-24T21:41:59.890Z,3.17
2022-11-24T21:47:05.380Z,2.67
2022-11-24T21:52:11.825Z,2.80
2022-11-24T21:57:15.762Z,2.58
2022-11-24T22:02:21.846Z,3.08
2022-11-24T22:07:25.944Z,3.05
2022-11-24T22:12:30.547Z,4.13
2022-11-24T22:17:37.981Z,3.00
2022-11-24T22:22:42.488Z,2.67
2022-11-24T22:27:46.469Z,3.88
2022-11-24T22:32:52.410Z,4.18
2022-11-24T22:37:57.872Z,3.17
2022-11-24T22:43:01.991Z,3.58
2022-11-24T22:48:08.022Z,3.53
2022-11-24T22:53:12.046Z,2.88
2022-11-24T22:58:16.328Z,3.45
2022-11-24T23:03:21.788Z,3.50
2022-11-24T23:08:26.077Z,3.15
2022-11-24T23:13:30.366Z,3.38
2022-11-24T23:18:36.718Z,2.60
2022-11-24T23:23:41.361Z,2.75
2022-11-24T23:28:46.718Z,3.17
2022-11-24T23:33:52.116Z,3.20
2022-11-24T23:38:57.657Z,3.10
2022-11-24T23:44:01.928Z,2.95
2022-11-24T23:49:07.447Z,3.47
2022-11-24T23:54:11.486Z,3.03
2022-11-24T23:59:17.361Z,2.90
